気象予報士の航空気象 にわか雨

*All archives   *Admin

スポンサーサイト

上記の広告は1ヶ月以上更新のないブログに表示されています。
新しい記事を書く事で広告が消せます。
--:--  |  スポンサー広告  |  EDIT  |  Top↑

2009.05.13 (Wed)

にわか雨

 ここ数日天気がぱっとしないですね。春霞でしょうか?


関東地方の天気

一昨日
 北東風の影響で、全国各地で夏日を記録する中、20度前後、さらに視程は悪く、薄い低い雲に
覆われていました。


昨日
 霞がかったような天気が続き、夜には雨が降りはじめました。


今日
 寒冷前線が通過し、早朝には雨がやんだにも関わらず、視程は悪いまま。

午後から夕方にかけてにわか雨が降り、洗濯物を濡らした家庭も多いのではないでしょうか?

羽田空港のMETAR
122230Z 02003KT 2700 BR FEW009 SCT050 BKN100 20/18 Q1001 RMK 1ST009 3SC050 5AC100 A2958
早朝 視程2700m 気温20度

122300Z VRB02KT 3000 BR SCT011 BKN140 21/18 Q1001
       RMK 4CU011 7AC140 A2958
122330Z 10003KT 3200 BR FEW011 BKN140 21/18 Q1001
       RMK 1ST011 7AC140 A2958
130000Z 11003KT 3200 BR FEW011 BKN140 21/19 Q1001
       RMK 1ST011 7AC140 A2958
130030Z 13005KT 3200 BR FEW015 BKN100 21/18 Q1001
       RMK 1CU015 7AC100 A2959
130100Z 14007KT 3000 BR FEW015 BKN100 22/19 Q1001
       RMK 1CU015 7AC100 A2958
130130Z 13007KT 3000 BR FEW015 BKN100 22/19 Q1001
       RMK 1CU015 7AC100 A2958
       MOD TURB BTN 15000 AND 12000FT 2NM S AMI BY A300 AT 0120
130200Z 13007KT 3000 BR NSC 23/19 Q1001
       RMK 1AC070 7AC100 A2957
130230Z 16010KT 3000 HZ FEW050 BKN100 23/18 Q1001
       RMK 1SC050 7AC100 A2956
130300Z 17011KT 3500 HZ FEW030 BKN070 23/17 Q1000
       RMK 1CU030 7AC070 A2956


昼過ぎまで視程悪く、気温は23度(正午)



130330Z 14006KT 120V190 6000 -SHRA BR FEW030 BKN070 22/18 Q1000
       RMK 1CU030 7AC070 A2954
       MOD TURB 13000FT OVER MORIYA BY B767 AT 0329 BR E
130400Z 13003KT 110V180 5000 -SHRA BR FEW025 BKN035 BKN050
       21/18 Q1000
       RMK 1CU025 5CU035 7SC050 A2955

にわか雨により、視程が5,6kmまで回復。


 また、羽田空港にはプーチン首相を乗せたロシア政府専用機が離陸したようで、慣れない羽田空港で、しかも視程不良、苦労されたのではないでしょうか?



 下図は、FXJP854です。
関東地方になにやらありそうですね。渦を巻いており、湾曲し、収束しています。すなわち、低気圧を意味しています。これが通過したために、にわか雨が降ったのです。

13MAY0900ZT12.jpg
FXJP854 13日午前09時基準 午後9時予想


ブログランキングに参加しています。
にほんブログ村 環境ブログ 天気・気象学へ
にほんブログ村
応援クリックをおねがします。


以下、アフィリエイトサイトです。






スポンサーサイト
23:37  |  時事  |  TB(0)  |  CM(0)  |  EDIT  |  Top↑

コメントを投稿する


 管理者だけに表示  (非公開コメント投稿可能)

▲PageTop

この記事のトラックバックURL

→http://weathereucalyptus.blog115.fc2.com/tb.php/109-71d4d5a0
この記事にトラックバックする(FC2ブログユーザー)

この記事へのトラックバック

▲PageTop

 | BLOGTOP | 
上記広告は1ヶ月以上更新のないブログに表示されています。新しい記事を書くことで広告を消せます。